sensor_id;sensor_type;location;lat;lon;timestamp;temperature;humidity
10911;DHT22;5508;49.150;11.030;2023-05-29T00:02:37;9.70;90.20
10911;DHT22;5508;49.150;11.030;2023-05-29T00:05:38;9.70;89.80
10911;DHT22;5508;49.150;11.030;2023-05-29T00:08:39;9.60;89.70
10911;DHT22;5508;49.150;11.030;2023-05-29T00:11:39;9.60;88.60
10911;DHT22;5508;49.150;11.030;2023-05-29T00:14:40;9.40;88.30
10911;DHT22;5508;49.150;11.030;2023-05-29T00:17:41;9.40;88.80
10911;DHT22;5508;49.150;11.030;2023-05-29T00:20:43;9.30;89.60
10911;DHT22;5508;49.150;11.030;2023-05-29T00:23:44;9.30;90.30
10911;DHT22;5508;49.150;11.030;2023-05-29T00:26:44;9.20;89.70
10911;DHT22;5508;49.150;11.030;2023-05-29T00:29:46;9.10;90.00
10911;DHT22;5508;49.150;11.030;2023-05-29T00:32:47;9.20;87.90
10911;DHT22;5508;49.150;11.030;2023-05-29T00:35:47;9.30;87.70
10911;DHT22;5508;49.150;11.030;2023-05-29T00:38:48;9.30;88.40
10911;DHT22;5508;49.150;11.030;2023-05-29T00:41:49;9.40;88.30
10911;DHT22;5508;49.150;11.030;2023-05-29T00:44:52;9.40;88.40
10911;DHT22;5508;49.150;11.030;2023-05-29T00:47:53;9.30;90.00
10911;DHT22;5508;49.150;11.030;2023-05-29T00:50:54;9.30;89.90
10911;DHT22;5508;49.150;11.030;2023-05-29T00:53:55;9.20;90.00
10911;DHT22;5508;49.150;11.030;2023-05-29T00:56:57;9.10;91.00
10911;DHT22;5508;49.150;11.030;2023-05-29T00:59:58;9.00;91.30
10911;DHT22;5508;49.150;11.030;2023-05-29T01:03:01;9.00;91.30
10911;DHT22;5508;49.150;11.030;2023-05-29T01:06:04;8.90;92.00
10911;DHT22;5508;49.150;11.030;2023-05-29T01:09:05;8.80;92.20
10911;DHT22;5508;49.150;11.030;2023-05-29T01:18:49;8.50;94.50
10911;DHT22;5508;49.150;11.030;2023-05-29T01:28:42;8.40;94.40
10911;DHT22;5508;49.150;11.030;2023-05-29T01:31:45;8.30;95.20
10911;DHT22;5508;49.150;11.030;2023-05-29T01:34:46;8.30;96.50
10911;DHT22;5508;49.150;11.030;2023-05-29T01:37:46;8.30;95.70
10911;DHT22;5508;49.150;11.030;2023-05-29T01:40:47;8.20;95.10
10911;DHT22;5508;49.150;11.030;2023-05-29T01:43:49;8.20;94.40
10911;DHT22;5508;49.150;11.030;2023-05-29T01:46:50;8.30;92.60
10911;DHT22;5508;49.150;11.030;2023-05-29T01:49:52;8.20;91.80
10911;DHT22;5508;49.150;11.030;2023-05-29T01:52:52;8.00;93.90
10911;DHT22;5508;49.150;11.030;2023-05-29T01:55:53;8.00;95.20
10911;DHT22;5508;49.150;11.030;2023-05-29T01:58:55;7.90;95.10
10911;DHT22;5508;49.150;11.030;2023-05-29T02:01:56;7.90;95.30
10911;DHT22;5508;49.150;11.030;2023-05-29T02:04:56;8.00;93.50
10911;DHT22;5508;49.150;11.030;2023-05-29T02:07:57;8.00;94.50
10911;DHT22;5508;49.150;11.030;2023-05-29T02:10:58;8.00;94.60
10911;DHT22;5508;49.150;11.030;2023-05-29T02:13:58;7.90;94.90
10911;DHT22;5508;49.150;11.030;2023-05-29T02:17:02;7.80;96.00
10911;DHT22;5508;49.150;11.030;2023-05-29T02:20:03;7.80;96.60
10911;DHT22;5508;49.150;11.030;2023-05-29T02:23:05;7.70;97.50
10911;DHT22;5508;49.150;11.030;2023-05-29T02:26:05;7.60;97.50
10911;DHT22;5508;49.150;11.030;2023-05-29T02:29:06;7.60;98.90
10911;DHT22;5508;49.150;11.030;2023-05-29T02:32:07;7.60;98.80
10911;DHT22;5508;49.150;11.030;2023-05-29T02:35:08;7.60;99.90
10911;DHT22;5508;49.150;11.030;2023-05-29T02:38:08;7.60;98.90
10911;DHT22;5508;49.150;11.030;2023-05-29T02:41:09;7.50;97.90
10911;DHT22;5508;49.150;11.030;2023-05-29T02:44:10;7.40;98.10
10911;DHT22;5508;49.150;11.030;2023-05-29T02:47:10;7.30;98.60
10911;DHT22;5508;49.150;11.030;2023-05-29T02:50:11;7.30;98.90
10911;DHT22;5508;49.150;11.030;2023-05-29T02:53:14;7.40;99.70
10911;DHT22;5508;49.150;11.030;2023-05-29T02:56:15;7.30;99.90
10911;DHT22;5508;49.150;11.030;2023-05-29T02:59:16;7.30;99.90
10911;DHT22;5508;49.150;11.030;2023-05-29T03:02:17;7.30;99.90
10911;DHT22;5508;49.150;11.030;2023-05-29T03:05:18;7.20;99.50
10911;DHT22;5508;49.150;11.030;2023-05-29T03:08:21;7.10;99.40
10911;DHT22;5508;49.150;11.030;2023-05-29T03:11:22;7.00;99.50
10911;DHT22;5508;49.150;11.030;2023-05-29T03:14:25;6.90;99.90
10911;DHT22;5508;49.150;11.030;2023-05-29T03:17:27;6.90;99.90
10911;DHT22;5508;49.150;11.030;2023-05-29T03:20:28;6.90;99.90
10911;DHT22;5508;49.150;11.030;2023-05-29T03:23:28;6.90;99.90
10911;DHT22;5508;49.150;11.030;2023-05-29T03:26:29;6.90;99.90
10911;DHT22;5508;49.150;11.030;2023-05-29T03:29:31;6.90;99.90
10911;DHT22;5508;49.150;11.030;2023-05-29T03:32:32;6.80;99.90
10911;DHT22;5508;49.150;11.030;2023-05-29T03:35:33;6.90;99.90
10911;DHT22;5508;49.150;11.030;2023-05-29T03:38:34;7.00;99.90
10911;DHT22;5508;49.150;11.030;2023-05-29T03:41:34;7.20;99.70
10911;DHT22;5508;49.150;11.030;2023-05-29T03:44:35;7.10;99.30
10911;DHT22;5508;49.150;11.030;2023-05-29T03:47:35;7.10;99.90
10911;DHT22;5508;49.150;11.030;2023-05-29T03:50:36;7.00;99.90
10911;DHT22;5508;49.150;11.030;2023-05-29T03:53:37;7.10;99.70
10911;DHT22;5508;49.150;11.030;2023-05-29T03:56:38;7.10;99.10
10911;DHT22;5508;49.150;11.030;2023-05-29T03:59:38;7.20;99.80
10911;DHT22;5508;49.150;11.030;2023-05-29T04:02:39;7.30;99.50
10911;DHT22;5508;49.150;11.030;2023-05-29T04:05:40;7.40;99.00
10911;DHT22;5508;49.150;11.030;2023-05-29T04:08:41;7.60;98.50
10911;DHT22;5508;49.150;11.030;2023-05-29T04:11:41;7.60;98.10
10911;DHT22;5508;49.150;11.030;2023-05-29T04:14:44;7.70;98.10
10911;DHT22;5508;49.150;11.030;2023-05-29T04:17:45;7.60;98.60
10911;DHT22;5508;49.150;11.030;2023-05-29T04:20:46;7.70;98.40
10911;DHT22;5508;49.150;11.030;2023-05-29T04:23:47;7.90;98.10
10911;DHT22;5508;49.150;11.030;2023-05-29T04:26:48;8.10;96.70
10911;DHT22;5508;49.150;11.030;2023-05-29T04:29:48;8.20;97.60
10911;DHT22;5508;49.150;11.030;2023-05-29T04:32:49;8.20;98.20
10911;DHT22;5508;49.150;11.030;2023-05-29T04:35:50;8.40;97.20
10911;DHT22;5508;49.150;11.030;2023-05-29T04:38:51;8.70;91.80
10911;DHT22;5508;49.150;11.030;2023-05-29T04:41:52;8.70;90.20
10911;DHT22;5508;49.150;11.030;2023-05-29T04:44:53;8.90;90.70
10911;DHT22;5508;49.150;11.030;2023-05-29T04:47:54;9.10;88.40
10911;DHT22;5508;49.150;11.030;2023-05-29T04:50:55;9.10;91.00
10911;DHT22;5508;49.150;11.030;2023-05-29T04:53:57;9.30;91.40
10911;DHT22;5508;49.150;11.030;2023-05-29T04:56:58;9.40;91.20
10911;DHT22;5508;49.150;11.030;2023-05-29T04:59:58;9.50;91.60
10911;DHT22;5508;49.150;11.030;2023-05-29T05:02:59;9.70;90.50
10911;DHT22;5508;49.150;11.030;2023-05-29T05:06:00;9.80;89.90
10911;DHT22;5508;49.150;11.030;2023-05-29T05:09:02;10.00;88.10
10911;DHT22;5508;49.150;11.030;2023-05-29T05:12:03;10.10;90.00
10911;DHT22;5508;49.150;11.030;2023-05-29T05:15:04;10.30;89.10
10911;DHT22;5508;49.150;11.030;2023-05-29T05:18:05;10.50;88.20
10911;DHT22;5508;49.150;11.030;2023-05-29T05:21:06;10.70;87.10
10911;DHT22;5508;49.150;11.030;2023-05-29T05:24:06;10.90;86.80
10911;DHT22;5508;49.150;11.030;2023-05-29T05:27:07;10.80;87.50
10911;DHT22;5508;49.150;11.030;2023-05-29T05:30:08;10.70;89.00
10911;DHT22;5508;49.150;11.030;2023-05-29T05:33:08;10.90;88.50
10911;DHT22;5508;49.150;11.030;2023-05-29T05:36:09;10.90;87.60
10911;DHT22;5508;49.150;11.030;2023-05-29T05:39:10;11.10;88.40
10911;DHT22;5508;49.150;11.030;2023-05-29T05:42:11;11.30;86.10
10911;DHT22;5508;49.150;11.030;2023-05-29T05:45:12;11.50;86.60
10911;DHT22;5508;49.150;11.030;2023-05-29T05:48:12;11.90;83.50
10911;DHT22;5508;49.150;11.030;2023-05-29T05:51:13;11.90;84.40
10911;DHT22;5508;49.150;11.030;2023-05-29T05:54:13;12.40;80.60
10911;DHT22;5508;49.150;11.030;2023-05-29T05:57:14;12.70;79.90
10911;DHT22;5508;49.150;11.030;2023-05-29T06:00:15;12.90;81.20
10911;DHT22;5508;49.150;11.030;2023-05-29T06:03:16;12.90;81.40
10911;DHT22;5508;49.150;11.030;2023-05-29T06:06:17;13.30;78.70
10911;DHT22;5508;49.150;11.030;2023-05-29T06:09:18;13.70;76.10
10911;DHT22;5508;49.150;11.030;2023-05-29T06:12:19;13.80;76.10
10911;DHT22;5508;49.150;11.030;2023-05-29T06:15:20;13.90;76.60
10911;DHT22;5508;49.150;11.030;2023-05-29T06:18:20;14.40;68.90
10911;DHT22;5508;49.150;11.030;2023-05-29T06:21:21;14.60;67.20
10911;DHT22;5508;49.150;11.030;2023-05-29T06:24:22;14.90;66.00
10911;DHT22;5508;49.150;11.030;2023-05-29T06:27:22;15.20;64.10
10911;DHT22;5508;49.150;11.030;2023-05-29T06:30:26;15.50;66.20
10911;DHT22;5508;49.150;11.030;2023-05-29T06:33:27;15.90;62.10
10911;DHT22;5508;49.150;11.030;2023-05-29T06:36:27;16.20;60.20
10911;DHT22;5508;49.150;11.030;2023-05-29T06:39:28;16.30;57.80
10911;DHT22;5508;49.150;11.030;2023-05-29T06:42:29;16.60;58.40
10911;DHT22;5508;49.150;11.030;2023-05-29T06:45:29;16.70;56.40
10911;DHT22;5508;49.150;11.030;2023-05-29T06:48:33;16.80;54.20
10911;DHT22;5508;49.150;11.030;2023-05-29T06:51:35;17.00;52.30
10911;DHT22;5508;49.150;11.030;2023-05-29T06:54:35;17.00;54.10
10911;DHT22;5508;49.150;11.030;2023-05-29T06:57:36;17.30;52.90
10911;DHT22;5508;49.150;11.030;2023-05-29T07:04:33;17.60;51.80
10911;DHT22;5508;49.150;11.030;2023-05-29T07:07:34;18.00;51.30
10911;DHT22;5508;49.150;11.030;2023-05-29T07:10:35;18.20;49.70
10911;DHT22;5508;49.150;11.030;2023-05-29T07:13:35;18.30;49.00
10911;DHT22;5508;49.150;11.030;2023-05-29T07:16:36;18.40;48.50
10911;DHT22;5508;49.150;11.030;2023-05-29T07:19:36;18.50;48.60
10911;DHT22;5508;49.150;11.030;2023-05-29T07:22:37;18.80;47.40
10911;DHT22;5508;49.150;11.030;2023-05-29T07:25:38;19.00;47.50
10911;DHT22;5508;49.150;11.030;2023-05-29T07:28:38;19.20;48.10
10911;DHT22;5508;49.150;11.030;2023-05-29T07:31:39;19.10;44.70
10911;DHT22;5508;49.150;11.030;2023-05-29T07:34:42;19.10;45.50
10911;DHT22;5508;49.150;11.030;2023-05-29T07:37:43;19.10;45.30
10911;DHT22;5508;49.150;11.030;2023-05-29T07:40:43;19.60;46.00
10911;DHT22;5508;49.150;11.030;2023-05-29T07:43:44;19.60;46.60
10911;DHT22;5508;49.150;11.030;2023-05-29T07:46:51;19.90;42.30
10911;DHT22;5508;49.150;11.030;2023-05-29T07:49:51;19.80;42.80
10911;DHT22;5508;49.150;11.030;2023-05-29T07:52:54;20.20;45.10
10911;DHT22;5508;49.150;11.030;2023-05-29T07:55:56;20.30;42.70
10911;DHT22;5508;49.150;11.030;2023-05-29T07:58:57;20.30;40.90
10911;DHT22;5508;49.150;11.030;2023-05-29T08:01:57;20.40;39.50
10911;DHT22;5508;49.150;11.030;2023-05-29T08:04:59;20.40;39.20
10911;DHT22;5508;49.150;11.030;2023-05-29T08:07:59;20.10;39.20
10911;DHT22;5508;49.150;11.030;2023-05-29T08:11:00;20.30;37.50
10911;DHT22;5508;49.150;11.030;2023-05-29T08:14:01;20.30;37.60
10911;DHT22;5508;49.150;11.030;2023-05-29T08:17:01;20.60;39.20
10911;DHT22;5508;49.150;11.030;2023-05-29T08:20:02;20.50;37.10
10911;DHT22;5508;49.150;11.030;2023-05-29T08:23:06;20.80;40.20
10911;DHT22;5508;49.150;11.030;2023-05-29T08:26:07;21.00;36.10
10911;DHT22;5508;49.150;11.030;2023-05-29T08:29:07;21.00;34.20
10911;DHT22;5508;49.150;11.030;2023-05-29T08:32:08;21.10;33.30
10911;DHT22;5508;49.150;11.030;2023-05-29T08:35:09;21.10;34.30
10911;DHT22;5508;49.150;11.030;2023-05-29T08:38:09;20.90;35.00
10911;DHT22;5508;49.150;11.030;2023-05-29T08:41:16;21.20;35.50
10911;DHT22;5508;49.150;11.030;2023-05-29T08:44:21;21.20;36.00
10911;DHT22;5508;49.150;11.030;2023-05-29T08:47:26;21.40;33.80
10911;DHT22;5508;49.150;11.030;2023-05-29T08:50:27;21.60;34.10
10911;DHT22;5508;49.150;11.030;2023-05-29T08:53:27;21.60;32.70
10911;DHT22;5508;49.150;11.030;2023-05-29T08:56:28;21.60;33.20
10911;DHT22;5508;49.150;11.030;2023-05-29T08:59:30;21.40;35.20
10911;DHT22;5508;49.150;11.030;2023-05-29T09:02:31;21.40;32.60
10911;DHT22;5508;49.150;11.030;2023-05-29T09:05:31;21.20;32.90
10911;DHT22;5508;49.150;11.030;2023-05-29T09:08:33;21.50;34.00
10911;DHT22;5508;49.150;11.030;2023-05-29T09:11:33;21.50;34.40
10911;DHT22;5508;49.150;11.030;2023-05-29T09:14:35;21.90;34.40
10911;DHT22;5508;49.150;11.030;2023-05-29T09:17:36;22.20;35.40
10911;DHT22;5508;49.150;11.030;2023-05-29T09:20:36;22.40;32.80
10911;DHT22;5508;49.150;11.030;2023-05-29T09:23:37;22.50;32.50
10911;DHT22;5508;49.150;11.030;2023-05-29T09:26:38;22.40;30.70
10911;DHT22;5508;49.150;11.030;2023-05-29T09:33:49;22.10;31.20
10911;DHT22;5508;49.150;11.030;2023-05-29T09:36:50;22.00;31.00
10911;DHT22;5508;49.150;11.030;2023-05-29T09:39:52;22.20;33.10
10911;DHT22;5508;49.150;11.030;2023-05-29T09:42:52;22.10;31.10
10911;DHT22;5508;49.150;11.030;2023-05-29T09:45:53;22.00;30.00
10911;DHT22;5508;49.150;11.030;2023-05-29T09:48:54;22.10;30.70
10911;DHT22;5508;49.150;11.030;2023-05-29T09:51:55;21.90;27.40
10911;DHT22;5508;49.150;11.030;2023-05-29T09:54:57;21.80;29.10
10911;DHT22;5508;49.150;11.030;2023-05-29T09:57:59;22.20;27.90
10911;DHT22;5508;49.150;11.030;2023-05-29T10:00:59;22.10;28.50
10911;DHT22;5508;49.150;11.030;2023-05-29T10:04:00;22.40;28.80
10911;DHT22;5508;49.150;11.030;2023-05-29T10:07:24;22.40;28.30
10911;DHT22;5508;49.150;11.030;2023-05-29T10:10:25;22.50;25.10
10911;DHT22;5508;49.150;11.030;2023-05-29T10:13:32;22.20;24.10
10911;DHT22;5508;49.150;11.030;2023-05-29T10:16:35;22.40;23.10
10911;DHT22;5508;49.150;11.030;2023-05-29T10:19:41;22.30;24.60
10911;DHT22;5508;49.150;11.030;2023-05-29T10:22:49;22.30;26.30
10911;DHT22;5508;49.150;11.030;2023-05-29T10:25:55;22.50;26.50
10911;DHT22;5508;49.150;11.030;2023-05-29T10:29:05;22.30;25.40
10911;DHT22;5508;49.150;11.030;2023-05-29T10:35:46;22.70;26.60
10911;DHT22;5508;49.150;11.030;2023-05-29T10:38:48;22.50;26.40
10911;DHT22;5508;49.150;11.030;2023-05-29T10:41:49;22.40;24.90
10911;DHT22;5508;49.150;11.030;2023-05-29T10:44:50;22.50;25.10
10911;DHT22;5508;49.150;11.030;2023-05-29T10:47:51;22.70;26.80
10911;DHT22;5508;49.150;11.030;2023-05-29T10:50:52;22.60;25.50
10911;DHT22;5508;49.150;11.030;2023-05-29T10:53:53;22.70;26.00
10911;DHT22;5508;49.150;11.030;2023-05-29T10:57:00;22.50;25.90
10911;DHT22;5508;49.150;11.030;2023-05-29T11:00:08;22.80;25.50
10911;DHT22;5508;49.150;11.030;2023-05-29T11:03:36;22.90;24.90
10911;DHT22;5508;49.150;11.030;2023-05-29T11:06:36;23.10;26.20
10911;DHT22;5508;49.150;11.030;2023-05-29T11:09:38;23.20;26.50
10911;DHT22;5508;49.150;11.030;2023-05-29T11:12:56;23.40;26.50
10911;DHT22;5508;49.150;11.030;2023-05-29T11:16:05;23.40;25.40
10911;DHT22;5508;49.150;11.030;2023-05-29T11:19:10;23.30;26.90
10911;DHT22;5508;49.150;11.030;2023-05-29T11:22:16;23.20;27.70
10911;DHT22;5508;49.150;11.030;2023-05-29T11:25:20;23.20;24.70
10911;DHT22;5508;49.150;11.030;2023-05-29T11:28:21;23.20;27.00
10911;DHT22;5508;49.150;11.030;2023-05-29T11:31:22;23.20;26.80
10911;DHT22;5508;49.150;11.030;2023-05-29T11:34:23;23.20;25.70
10911;DHT22;5508;49.150;11.030;2023-05-29T11:37:25;23.10;25.50
10911;DHT22;5508;49.150;11.030;2023-05-29T11:40:26;23.10;25.00
10911;DHT22;5508;49.150;11.030;2023-05-29T11:43:27;23.10;25.70
10911;DHT22;5508;49.150;11.030;2023-05-29T11:46:28;23.10;25.80
10911;DHT22;5508;49.150;11.030;2023-05-29T11:49:36;23.10;26.10
10911;DHT22;5508;49.150;11.030;2023-05-29T11:52:45;23.20;26.20
10911;DHT22;5508;49.150;11.030;2023-05-29T11:55:46;23.20;25.50
10911;DHT22;5508;49.150;11.030;2023-05-29T11:58:47;23.30;27.70
10911;DHT22;5508;49.150;11.030;2023-05-29T12:01:48;23.50;28.00
10911;DHT22;5508;49.150;11.030;2023-05-29T12:05:02;23.40;23.90
10911;DHT22;5508;49.150;11.030;2023-05-29T12:08:03;23.40;25.10
10911;DHT22;5508;49.150;11.030;2023-05-29T12:11:05;23.30;25.80
10911;DHT22;5508;49.150;11.030;2023-05-29T12:14:05;23.30;25.20
10911;DHT22;5508;49.150;11.030;2023-05-29T12:17:06;23.40;25.40
10911;DHT22;5508;49.150;11.030;2023-05-29T12:20:12;23.60;25.10
10911;DHT22;5508;49.150;11.030;2023-05-29T12:23:13;23.60;26.10
10911;DHT22;5508;49.150;11.030;2023-05-29T12:26:14;23.60;25.60
10911;DHT22;5508;49.150;11.030;2023-05-29T12:29:15;23.70;26.00
10911;DHT22;5508;49.150;11.030;2023-05-29T12:32:16;23.70;27.40
10911;DHT22;5508;49.150;11.030;2023-05-29T12:35:27;23.60;26.10
10911;DHT22;5508;49.150;11.030;2023-05-29T12:38:28;23.80;26.00
10911;DHT22;5508;49.150;11.030;2023-05-29T12:41:36;23.80;26.40
10911;DHT22;5508;49.150;11.030;2023-05-29T12:44:37;23.50;26.40
10911;DHT22;5508;49.150;11.030;2023-05-29T12:47:54;23.70;27.40
10911;DHT22;5508;49.150;11.030;2023-05-29T12:50:55;23.50;27.90
10911;DHT22;5508;49.150;11.030;2023-05-29T12:53:55;23.70;27.40
10911;DHT22;5508;49.150;11.030;2023-05-29T12:56:58;24.00;27.00
10911;DHT22;5508;49.150;11.030;2023-05-29T13:00:01;24.00;27.70
10911;DHT22;5508;49.150;11.030;2023-05-29T13:03:02;24.10;27.60
10911;DHT22;5508;49.150;11.030;2023-05-29T13:06:03;24.20;29.20
10911;DHT22;5508;49.150;11.030;2023-05-29T13:09:04;24.30;29.10
10911;DHT22;5508;49.150;11.030;2023-05-29T13:12:07;24.50;26.80
10911;DHT22;5508;49.150;11.030;2023-05-29T13:15:08;24.40;27.40
10911;DHT22;5508;49.150;11.030;2023-05-29T13:18:09;24.30;27.70
10911;DHT22;5508;49.150;11.030;2023-05-29T13:21:10;24.40;27.20
10911;DHT22;5508;49.150;11.030;2023-05-29T13:24:11;24.00;28.50
10911;DHT22;5508;49.150;11.030;2023-05-29T13:27:12;23.90;28.70
10911;DHT22;5508;49.150;11.030;2023-05-29T13:30:16;24.00;30.60
10911;DHT22;5508;49.150;11.030;2023-05-29T13:33:17;24.30;27.70
10911;DHT22;5508;49.150;11.030;2023-05-29T13:36:17;24.30;27.40
10911;DHT22;5508;49.150;11.030;2023-05-29T13:39:18;24.40;27.60
10911;DHT22;5508;49.150;11.030;2023-05-29T13:42:19;24.40;28.00
10911;DHT22;5508;49.150;11.030;2023-05-29T13:45:20;24.30;26.40
10911;DHT22;5508;49.150;11.030;2023-05-29T13:48:21;24.40;27.40
10911;DHT22;5508;49.150;11.030;2023-05-29T13:51:22;24.20;25.50
10911;DHT22;5508;49.150;11.030;2023-05-29T13:54:22;23.90;25.40
10911;DHT22;5508;49.150;11.030;2023-05-29T13:57:23;24.10;26.20
10911;DHT22;5508;49.150;11.030;2023-05-29T14:00:24;24.20;25.50
10911;DHT22;5508;49.150;11.030;2023-05-29T14:03:24;24.30;27.90
10911;DHT22;5508;49.150;11.030;2023-05-29T14:06:29;24.40;25.10
10911;DHT22;5508;49.150;11.030;2023-05-29T14:09:29;24.30;24.90
10911;DHT22;5508;49.150;11.030;2023-05-29T14:12:30;24.30;25.30
10911;DHT22;5508;49.150;11.030;2023-05-29T14:15:31;24.50;26.10
10911;DHT22;5508;49.150;11.030;2023-05-29T14:18:31;24.60;26.10
10911;DHT22;5508;49.150;11.030;2023-05-29T14:21:32;24.80;26.30
10911;DHT22;5508;49.150;11.030;2023-05-29T14:24:33;25.00;25.40
10911;DHT22;5508;49.150;11.030;2023-05-29T14:27:33;24.80;26.20
10911;DHT22;5508;49.150;11.030;2023-05-29T14:30:34;25.10;27.60
10911;DHT22;5508;49.150;11.030;2023-05-29T14:33:35;25.10;26.70
10911;DHT22;5508;49.150;11.030;2023-05-29T14:36:37;25.30;23.70
10911;DHT22;5508;49.150;11.030;2023-05-29T14:39:37;25.20;24.40
10911;DHT22;5508;49.150;11.030;2023-05-29T14:42:38;25.00;25.50
10911;DHT22;5508;49.150;11.030;2023-05-29T14:45:39;24.80;24.10
10911;DHT22;5508;49.150;11.030;2023-05-29T14:48:39;25.00;24.70
10911;DHT22;5508;49.150;11.030;2023-05-29T14:51:40;25.10;23.80
10911;DHT22;5508;49.150;11.030;2023-05-29T14:54:43;25.10;24.00
10911;DHT22;5508;49.150;11.030;2023-05-29T14:57:43;25.10;24.50
10911;DHT22;5508;49.150;11.030;2023-05-29T15:00:44;25.20;26.00
10911;DHT22;5508;49.150;11.030;2023-05-29T15:03:45;25.40;25.30
10911;DHT22;5508;49.150;11.030;2023-05-29T15:06:45;25.50;25.60
10911;DHT22;5508;49.150;11.030;2023-05-29T15:09:46;25.40;24.10
10911;DHT22;5508;49.150;11.030;2023-05-29T15:12:47;25.10;25.00
10911;DHT22;5508;49.150;11.030;2023-05-29T15:15:47;25.10;26.80
10911;DHT22;5508;49.150;11.030;2023-05-29T15:18:48;25.20;26.00
10911;DHT22;5508;49.150;11.030;2023-05-29T15:21:49;25.30;26.20
10911;DHT22;5508;49.150;11.030;2023-05-29T15:24:49;25.10;25.70
10911;DHT22;5508;49.150;11.030;2023-05-29T15:27:50;25.10;26.70
10911;DHT22;5508;49.150;11.030;2023-05-29T15:30:51;25.10;25.20
10911;DHT22;5508;49.150;11.030;2023-05-29T15:33:51;24.80;25.60
10911;DHT22;5508;49.150;11.030;2023-05-29T15:36:52;24.80;25.50
10911;DHT22;5508;49.150;11.030;2023-05-29T15:39:55;24.60;24.90
10911;DHT22;5508;49.150;11.030;2023-05-29T15:42:56;24.30;26.80
10911;DHT22;5508;49.150;11.030;2023-05-29T15:45:56;24.20;27.40
10911;DHT22;5508;49.150;11.030;2023-05-29T15:48:57;24.20;28.10
10911;DHT22;5508;49.150;11.030;2023-05-29T15:51:58;24.20;27.70
10911;DHT22;5508;49.150;11.030;2023-05-29T15:54:58;24.30;27.50
10911;DHT22;5508;49.150;11.030;2023-05-29T15:57:59;24.30;26.10
10911;DHT22;5508;49.150;11.030;2023-05-29T16:01:00;24.30;26.00
10911;DHT22;5508;49.150;11.030;2023-05-29T16:04:00;24.30;25.70
10911;DHT22;5508;49.150;11.030;2023-05-29T16:07:03;24.40;25.00
10911;DHT22;5508;49.150;11.030;2023-05-29T16:10:04;24.30;25.90
10911;DHT22;5508;49.150;11.030;2023-05-29T16:13:05;24.20;25.00
10911;DHT22;5508;49.150;11.030;2023-05-29T16:16:06;24.30;25.50
10911;DHT22;5508;49.150;11.030;2023-05-29T16:19:06;24.30;26.40
10911;DHT22;5508;49.150;11.030;2023-05-29T16:22:08;24.30;26.30
10911;DHT22;5508;49.150;11.030;2023-05-29T16:25:09;24.00;27.50
10911;DHT22;5508;49.150;11.030;2023-05-29T16:28:10;24.30;26.30
10911;DHT22;5508;49.150;11.030;2023-05-29T16:31:10;24.30;27.60
10911;DHT22;5508;49.150;11.030;2023-05-29T16:34:11;24.10;26.50
10911;DHT22;5508;49.150;11.030;2023-05-29T16:37:12;24.00;28.00
10911;DHT22;5508;49.150;11.030;2023-05-29T16:40:12;23.90;27.90
10911;DHT22;5508;49.150;11.030;2023-05-29T16:43:14;24.10;27.20
10911;DHT22;5508;49.150;11.030;2023-05-29T16:46:14;24.10;26.40
10911;DHT22;5508;49.150;11.030;2023-05-29T16:49:15;24.00;26.20
10911;DHT22;5508;49.150;11.030;2023-05-29T16:52:16;23.90;28.90
10911;DHT22;5508;49.150;11.030;2023-05-29T16:55:19;23.80;26.90
10911;DHT22;5508;49.150;11.030;2023-05-29T16:58:20;23.70;27.30
10911;DHT22;5508;49.150;11.030;2023-05-29T17:01:24;23.70;27.20
10911;DHT22;5508;49.150;11.030;2023-05-29T17:04:25;23.50;26.40
10911;DHT22;5508;49.150;11.030;2023-05-29T17:07:25;23.40;26.90
10911;DHT22;5508;49.150;11.030;2023-05-29T17:10:32;23.40;25.50
10911;DHT22;5508;49.150;11.030;2023-05-29T17:13:33;23.30;26.30
10911;DHT22;5508;49.150;11.030;2023-05-29T17:16:34;23.30;25.90
10911;DHT22;5508;49.150;11.030;2023-05-29T17:19:34;23.30;25.40
10911;DHT22;5508;49.150;11.030;2023-05-29T17:22:35;23.20;26.10
10911;DHT22;5508;49.150;11.030;2023-05-29T17:25:36;23.20;27.20
10911;DHT22;5508;49.150;11.030;2023-05-29T17:28:36;23.10;27.40
10911;DHT22;5508;49.150;11.030;2023-05-29T17:31:37;23.00;26.40
10911;DHT22;5508;49.150;11.030;2023-05-29T17:34:38;22.90;26.30
10911;DHT22;5508;49.150;11.030;2023-05-29T17:37:39;22.80;26.90
10911;DHT22;5508;49.150;11.030;2023-05-29T17:40:39;22.70;27.70
10911;DHT22;5508;49.150;11.030;2023-05-29T17:43:40;22.60;27.50
10911;DHT22;5508;49.150;11.030;2023-05-29T17:46:41;22.50;28.30
10911;DHT22;5508;49.150;11.030;2023-05-29T17:49:41;22.50;27.30
10911;DHT22;5508;49.150;11.030;2023-05-29T17:52:42;22.40;27.40
10911;DHT22;5508;49.150;11.030;2023-05-29T17:55:43;22.30;28.10
10911;DHT22;5508;49.150;11.030;2023-05-29T17:58:44;22.20;30.10
10911;DHT22;5508;49.150;11.030;2023-05-29T18:01:46;22.00;29.50
10911;DHT22;5508;49.150;11.030;2023-05-29T18:04:47;21.90;29.90
10911;DHT22;5508;49.150;11.030;2023-05-29T18:07:50;21.80;30.60
10911;DHT22;5508;49.150;11.030;2023-05-29T18:10:51;21.60;29.90
10911;DHT22;5508;49.150;11.030;2023-05-29T18:13:51;21.50;32.10
10911;DHT22;5508;49.150;11.030;2023-05-29T18:16:52;21.40;30.30
10911;DHT22;5508;49.150;11.030;2023-05-29T18:19:53;21.30;32.00
10911;DHT22;5508;49.150;11.030;2023-05-29T18:22:54;21.10;30.90
10911;DHT22;5508;49.150;11.030;2023-05-29T18:25:54;21.00;34.40
10911;DHT22;5508;49.150;11.030;2023-05-29T18:28:55;20.80;33.80
10911;DHT22;5508;49.150;11.030;2023-05-29T18:31:57;20.50;34.20
10911;DHT22;5508;49.150;11.030;2023-05-29T18:34:58;20.40;35.00
10911;DHT22;5508;49.150;11.030;2023-05-29T18:37:59;20.50;35.70
10911;DHT22;5508;49.150;11.030;2023-05-29T18:41:00;20.40;36.90
10911;DHT22;5508;49.150;11.030;2023-05-29T18:44:00;20.50;37.60
10911;DHT22;5508;49.150;11.030;2023-05-29T18:47:01;20.50;37.80
10911;DHT22;5508;49.150;11.030;2023-05-29T18:50:01;20.40;38.70
10911;DHT22;5508;49.150;11.030;2023-05-29T18:53:02;20.40;38.90
10911;DHT22;5508;49.150;11.030;2023-05-29T18:56:03;20.30;39.60
10911;DHT22;5508;49.150;11.030;2023-05-29T18:59:05;20.20;40.50
10911;DHT22;5508;49.150;11.030;2023-05-29T19:02:05;20.10;40.30
10911;DHT22;5508;49.150;11.030;2023-05-29T19:05:06;20.00;40.80
10911;DHT22;5508;49.150;11.030;2023-05-29T19:08:07;19.90;41.00
10911;DHT22;5508;49.150;11.030;2023-05-29T19:11:10;19.80;41.40
10911;DHT22;5508;49.150;11.030;2023-05-29T19:14:12;19.70;42.20
10911;DHT22;5508;49.150;11.030;2023-05-29T19:17:13;19.50;42.30
10911;DHT22;5508;49.150;11.030;2023-05-29T19:20:15;19.50;43.10
10911;DHT22;5508;49.150;11.030;2023-05-29T19:23:16;19.30;42.90
10911;DHT22;5508;49.150;11.030;2023-05-29T19:26:17;19.30;43.00
10911;DHT22;5508;49.150;11.030;2023-05-29T19:29:19;19.10;43.40
10911;DHT22;5508;49.150;11.030;2023-05-29T19:32:22;19.10;43.70
10911;DHT22;5508;49.150;11.030;2023-05-29T19:35:23;19.10;43.30
10911;DHT22;5508;49.150;11.030;2023-05-29T19:38:23;18.90;44.00